createdAt,value
2019-01-19T00:01:34.221Z,2.13
2019-01-19T00:04:40.077Z,1.80
2019-01-19T00:07:51.058Z,3.27
2019-01-19T00:10:38.681Z,2.43
2019-01-19T00:13:27.179Z,2.27
2019-01-19T00:16:14.119Z,2.27
2019-01-19T00:19:13.578Z,1.93
2019-01-19T00:22:11.618Z,2.17
2019-01-19T00:25:12.500Z,2.13
2019-01-19T00:27:56.559Z,2.47
2019-01-19T00:30:52.398Z,1.93
2019-01-19T00:34:12.699Z,2.20
2019-01-19T00:37:19.697Z,2.27
2019-01-19T00:40:35.518Z,1.73
2019-01-19T00:43:21.700Z,2.37
2019-01-19T00:46:20.942Z,2.50
2019-01-19T00:49:10.719Z,1.67
2019-01-19T00:52:38.359Z,2.33
2019-01-19T00:55:57.865Z,2.00
2019-01-19T00:58:52.759Z,2.20
2019-01-19T01:01:53.583Z,4.23
2019-01-19T01:05:15.199Z,1.90
2019-01-19T01:08:19.138Z,1.97
2019-01-19T01:11:12.540Z,2.50
2019-01-19T01:14:22.540Z,2.13
2019-01-19T01:17:20.419Z,1.77
2019-01-19T01:20:33.790Z,1.93
2019-01-19T01:23:55.119Z,1.10
2019-01-19T01:26:52.099Z,1.60
2019-01-19T01:30:01.782Z,2.03
2019-01-19T01:32:58.407Z,2.10
2019-01-19T01:36:20.198Z,1.47
2019-01-19T01:39:37.538Z,1.40
2019-01-19T01:42:47.646Z,1.93
2019-01-19T01:45:55.489Z,1.37
2019-01-19T01:49:17.018Z,2.60
2019-01-19T01:52:31.479Z,3.07
2019-01-19T01:55:37.860Z,2.80
2019-01-19T01:58:17.159Z,3.03
2019-01-19T02:01:19.318Z,2.83
2019-01-19T02:04:30.639Z,2.97
2019-01-19T02:07:20.103Z,2.33
2019-01-19T02:10:31.890Z,2.00
2019-01-19T02:13:37.979Z,2.57
2019-01-19T02:16:50.518Z,3.33
2019-01-19T02:19:37.558Z,3.20
2019-01-19T02:22:46.737Z,2.30
2019-01-19T02:25:31.782Z,2.83
2019-01-19T02:28:25.519Z,4.70
2019-01-19T02:31:33.999Z,9.60
2019-01-19T02:34:34.939Z,11.10
2019-01-19T02:37:55.819Z,12.80
2019-01-19T02:41:02.073Z,11.10
2019-01-19T02:44:10.986Z,11.57
2019-01-19T02:47:17.179Z,9.17
2019-01-19T02:50:12.079Z,7.20
2019-01-19T02:53:26.615Z,6.50
2019-01-19T02:56:45.240Z,7.10
2019-01-19T03:03:24.377Z,4.33
2019-01-19T03:06:12.715Z,3.27
2019-01-19T03:09:11.395Z,3.83
2019-01-19T03:12:25.653Z,2.77
2019-01-19T03:15:31.585Z,3.00
2019-01-19T03:18:18.255Z,2.27
2019-01-19T03:21:46.295Z,1.33
2019-01-19T03:25:04.580Z,2.33
2019-01-19T03:28:12.714Z,2.07
2019-01-19T03:31:22.376Z,2.13
2019-01-19T03:34:44.415Z,2.30
2019-01-19T03:38:15.075Z,2.97
2019-01-19T03:41:37.839Z,4.17
2019-01-19T03:44:41.196Z,3.60
2019-01-19T03:47:27.057Z,2.90
2019-01-19T03:50:54.874Z,2.10
2019-01-19T03:54:09.874Z,2.23
2019-01-19T03:57:01.185Z,1.80
2019-01-19T04:00:01.420Z,2.43
2019-01-19T04:03:03.456Z,2.13
2019-01-19T04:06:28.857Z,1.80
2019-01-19T04:09:45.757Z,2.93
2019-01-19T04:12:58.817Z,2.67
2019-01-19T04:16:06.015Z,2.03
2019-01-19T04:19:18.954Z,2.53
2019-01-19T04:22:23.913Z,2.13
2019-01-19T04:25:32.243Z,2.77
2019-01-19T04:28:05.994Z,2.13
2019-01-19T04:30:38.149Z,1.53
2019-01-19T04:33:10.659Z,2.40
2019-01-19T04:35:42.975Z,1.93
2019-01-19T04:38:15.516Z,1.90
2019-01-19T04:40:47.615Z,1.97
2019-01-19T04:43:19.614Z,1.73
2019-01-19T04:45:51.695Z,2.40
2019-01-19T04:48:24.395Z,2.20
2019-01-19T04:50:56.475Z,2.40
2019-01-19T04:53:29.095Z,3.13
2019-01-19T04:56:01.355Z,2.03
2019-01-19T04:58:33.858Z,3.10
2019-01-19T05:01:05.633Z,2.83
2019-01-19T05:03:37.854Z,2.50
2019-01-19T05:06:12.565Z,2.33
2019-01-19T05:08:44.237Z,2.80
2019-01-19T05:11:16.075Z,2.20
2019-01-19T05:13:47.935Z,2.00
2019-01-19T05:16:20.079Z,2.40
2019-01-19T05:18:52.055Z,2.17
2019-01-19T05:21:24.555Z,2.50
2019-01-19T05:23:57.005Z,3.30
2019-01-19T05:26:29.075Z,2.20
2019-01-19T05:29:01.556Z,1.87
2019-01-19T05:31:33.354Z,2.20
2019-01-19T05:34:05.696Z,2.40
2019-01-19T05:36:38.421Z,2.20
2019-01-19T05:39:10.638Z,2.53
2019-01-19T05:41:42.355Z,2.57
2019-01-19T05:44:14.516Z,3.13
2019-01-19T05:46:46.455Z,3.33
2019-01-19T05:49:19.175Z,3.77
2019-01-19T05:51:51.536Z,3.43
2019-01-19T05:54:23.416Z,3.60
2019-01-19T05:56:55.275Z,3.73
2019-01-19T05:59:27.309Z,3.57
2019-01-19T06:01:59.415Z,3.30
2019-01-19T06:04:31.514Z,2.50
2019-01-19T06:07:03.615Z,1.90
2019-01-19T06:09:35.875Z,3.27
2019-01-19T06:12:07.717Z,2.30
2019-01-19T06:14:40.254Z,2.00
2019-01-19T06:17:12.455Z,2.90
2019-01-19T06:19:45.515Z,2.27
2019-01-19T06:22:18.196Z,2.60
2019-01-19T06:24:50.615Z,1.63
2019-01-19T06:27:23.115Z,3.27
2019-01-19T06:29:55.325Z,2.27
2019-01-19T06:32:27.215Z,2.37
2019-01-19T06:34:59.419Z,2.43
2019-01-19T06:37:32.097Z,2.23
2019-01-19T06:40:04.716Z,2.70
2019-01-19T06:42:36.594Z,2.73
2019-01-19T06:45:12.849Z,2.00
2019-01-19T06:47:45.096Z,2.20
2019-01-19T06:50:17.895Z,3.23
2019-01-19T06:52:50.675Z,3.07
2019-01-19T06:55:26.351Z,2.70
2019-01-19T06:57:58.454Z,2.70
2019-01-19T07:00:30.915Z,2.13
2019-01-19T07:03:03.595Z,3.43
2019-01-19T07:05:35.575Z,3.53
2019-01-19T07:08:07.934Z,3.27
2019-01-19T07:10:39.976Z,3.50
2019-01-19T07:13:11.998Z,3.40
2019-01-19T07:15:43.935Z,4.27
2019-01-19T07:18:16.055Z,3.03
2019-01-19T07:20:48.632Z,4.30
2019-01-19T07:23:21.056Z,2.90
2019-01-19T07:25:53.515Z,3.30
2019-01-19T07:28:25.534Z,3.57
2019-01-19T07:30:58.495Z,4.60
2019-01-19T07:33:31.132Z,5.00
2019-01-19T07:36:04.095Z,4.83
2019-01-19T07:38:36.217Z,5.20
2019-01-19T07:41:08.735Z,4.63
2019-01-19T07:43:41.115Z,4.47
2019-01-19T07:46:13.534Z,5.23
2019-01-19T07:48:45.995Z,4.87
2019-01-19T07:51:17.990Z,4.20
2019-01-19T07:53:49.915Z,3.70
2019-01-19T07:56:23.114Z,3.13
2019-01-19T07:58:55.296Z,3.23
2019-01-19T08:01:27.919Z,4.10
2019-01-19T08:04:00.074Z,4.30
2019-01-19T08:06:32.555Z,5.33
2019-01-19T08:09:06.159Z,4.40
2019-01-19T08:11:38.138Z,4.13
2019-01-19T08:14:10.175Z,4.03
2019-01-19T08:16:41.915Z,3.63
2019-01-19T08:19:13.607Z,3.50
2019-01-19T08:21:45.663Z,3.90
2019-01-19T08:24:17.495Z,4.00
2019-01-19T08:26:49.204Z,5.17
2019-01-19T08:29:21.536Z,4.13
2019-01-19T08:31:53.933Z,2.93
2019-01-19T08:34:25.596Z,3.83
2019-01-19T08:36:58.975Z,4.13
2019-01-19T08:39:31.354Z,4.13
2019-01-19T08:42:03.779Z,4.47
2019-01-19T08:44:36.074Z,4.40
2019-01-19T08:47:08.134Z,3.93
2019-01-19T08:49:40.074Z,4.73
2019-01-19T08:52:12.595Z,3.83
2019-01-19T08:54:44.850Z,3.73
2019-01-19T08:57:17.075Z,3.97
2019-01-19T08:59:48.789Z,4.10
2019-01-19T09:02:21.258Z,4.13
2019-01-19T09:04:53.867Z,4.10
2019-01-19T09:07:33.314Z,3.53
2019-01-19T09:09:59.294Z,4.03
2019-01-19T09:12:32.735Z,4.50
2019-01-19T09:15:04.954Z,5.10
2019-01-19T09:17:37.242Z,7.13
2019-01-19T09:20:10.911Z,5.77
2019-01-19T09:22:42.974Z,4.73
2019-01-19T09:25:15.462Z,5.80
2019-01-19T09:27:49.155Z,13.73
2019-01-19T09:30:21.555Z,22.90
2019-01-19T09:32:54.004Z,18.57
2019-01-19T09:35:25.975Z,11.30
2019-01-19T09:37:57.996Z,9.63
2019-01-19T09:40:30.316Z,8.10
2019-01-19T09:43:02.355Z,7.13
2019-01-19T09:45:34.195Z,8.77
2019-01-19T09:48:06.815Z,8.20
2019-01-19T09:50:39.294Z,8.77
2019-01-19T09:53:11.437Z,9.03
2019-01-19T09:55:43.615Z,9.47
2019-01-19T09:58:16.244Z,7.90
2019-01-19T10:00:49.254Z,7.53
2019-01-19T10:03:21.880Z,7.87
2019-01-19T10:05:55.128Z,7.53
2019-01-19T10:08:27.414Z,6.87
2019-01-19T10:10:59.485Z,6.67
2019-01-19T10:13:31.755Z,5.73
2019-01-19T10:16:03.846Z,5.93
2019-01-19T10:18:37.235Z,6.57
2019-01-19T10:21:09.497Z,5.97
2019-01-19T10:23:41.695Z,4.90
2019-01-19T10:26:13.560Z,5.20
2019-01-19T10:28:49.089Z,4.93
2019-01-19T10:31:21.174Z,5.53
2019-01-19T10:33:53.434Z,5.60
2019-01-19T10:36:25.342Z,4.77
2019-01-19T10:38:57.415Z,4.30
2019-01-19T10:41:29.120Z,6.27
2019-01-19T10:44:01.014Z,4.37
2019-01-19T10:46:33.536Z,5.50
2019-01-19T10:49:06.078Z,4.30
2019-01-19T10:51:38.836Z,4.17
2019-01-19T10:54:11.434Z,5.27
2019-01-19T10:56:43.795Z,5.57
2019-01-19T10:59:15.535Z,4.73
2019-01-19T11:01:47.346Z,5.80
2019-01-19T11:04:19.457Z,4.97
2019-01-19T11:06:52.074Z,5.73
2019-01-19T11:09:24.015Z,5.47
2019-01-19T11:11:55.799Z,5.03
2019-01-19T11:14:28.075Z,5.17
2019-01-19T11:17:00.236Z,5.37
2019-01-19T11:19:32.074Z,5.07
2019-01-19T11:22:04.394Z,5.83
2019-01-19T11:24:36.108Z,6.23
2019-01-19T11:27:08.094Z,6.80
2019-01-19T11:29:40.419Z,6.20
2019-01-19T11:32:13.355Z,6.40
2019-01-19T11:34:45.853Z,4.80
2019-01-19T11:37:17.995Z,5.40
2019-01-19T11:39:49.997Z,5.97
2019-01-19T11:42:22.316Z,5.87
2019-01-19T11:44:54.534Z,6.50
2019-01-19T11:47:29.109Z,5.93
2019-01-19T11:50:01.131Z,6.83
2019-01-19T11:52:33.576Z,6.53
2019-01-19T11:55:07.205Z,6.40
2019-01-19T11:57:39.755Z,5.17
2019-01-19T12:00:22.794Z,6.63
2019-01-19T12:02:55.455Z,5.67
2019-01-19T12:05:27.938Z,7.23
2019-01-19T12:08:00.894Z,8.63
2019-01-19T12:10:33.135Z,7.20
2019-01-19T12:13:05.537Z,9.43
2019-01-19T12:15:37.516Z,8.60
2019-01-19T12:18:11.022Z,7.00
2019-01-19T12:20:45.658Z,6.50
2019-01-19T12:23:17.675Z,7.20
2019-01-19T12:25:49.478Z,6.97
2019-01-19T12:28:21.555Z,6.10
2019-01-19T12:30:53.377Z,6.17
2019-01-19T12:33:25.596Z,6.90
2019-01-19T12:35:57.576Z,7.00
2019-01-19T12:38:30.016Z,6.53
2019-01-19T12:41:02.056Z,7.00
2019-01-19T12:43:33.574Z,7.07
2019-01-19T12:46:08.633Z,7.97
2019-01-19T12:48:40.562Z,7.17
2019-01-19T12:51:14.157Z,7.03
2019-01-19T12:53:46.226Z,6.80
2019-01-19T12:56:18.074Z,7.17
2019-01-19T12:58:50.028Z,6.23
2019-01-19T13:01:22.214Z,6.57
2019-01-19T13:03:54.496Z,7.07
2019-01-19T13:06:55.300Z,6.77
2019-01-19T13:09:45.775Z,6.73
2019-01-19T13:12:39.280Z,6.97
2019-01-19T13:15:54.250Z,6.77
2019-01-19T13:18:57.274Z,7.27
2019-01-19T13:22:13.535Z,6.30
2019-01-19T13:25:04.235Z,6.73
2019-01-19T13:28:12.557Z,6.37
2019-01-19T13:31:20.896Z,6.10
2019-01-19T13:34:29.058Z,6.20
2019-01-19T13:37:45.013Z,6.07
2019-01-19T13:40:49.074Z,6.63
2019-01-19T13:44:06.336Z,6.00
2019-01-19T13:47:22.034Z,5.67
2019-01-19T13:50:40.574Z,6.53
2019-01-19T13:53:47.117Z,6.13
2019-01-19T13:56:51.372Z,5.47
2019-01-19T13:59:45.235Z,6.20
2019-01-19T14:02:50.694Z,5.67
2019-01-19T14:05:53.892Z,6.17
2019-01-19T14:09:14.322Z,6.03
2019-01-19T14:12:10.796Z,5.80
2019-01-19T14:15:22.273Z,4.33
2019-01-19T14:18:27.834Z,3.87
2019-01-19T14:21:33.034Z,3.43
2019-01-19T14:24:19.436Z,3.47
2019-01-19T14:27:22.515Z,3.17
2019-01-19T14:30:33.756Z,3.30
2019-01-19T14:33:49.353Z,3.00
2019-01-19T14:36:52.134Z,3.07
2019-01-19T14:40:03.062Z,3.70
2019-01-19T14:42:53.057Z,4.23
2019-01-19T14:46:17.989Z,4.63
2019-01-19T14:49:26.643Z,4.43
2019-01-19T14:52:30.798Z,4.70
2019-01-19T14:55:45.974Z,4.30
2019-01-19T14:59:00.014Z,4.37
2019-01-19T15:01:57.847Z,4.87
2019-01-19T15:04:55.484Z,4.27
2019-01-19T15:08:16.224Z,5.40
2019-01-19T15:11:23.513Z,4.77
2019-01-19T15:14:08.267Z,4.80
2019-01-19T15:17:06.994Z,4.83
2019-01-19T15:20:31.914Z,4.67
2019-01-19T15:23:45.875Z,5.63
2019-01-19T15:27:14.257Z,4.83
2019-01-19T15:30:21.074Z,4.63
2019-01-19T15:33:27.694Z,6.13
2019-01-19T15:36:31.536Z,5.90
2019-01-19T15:39:55.134Z,5.40
2019-01-19T15:43:09.824Z,5.77
2019-01-19T15:46:14.494Z,8.47
2019-01-19T15:49:16.821Z,5.63
2019-01-19T15:52:23.914Z,5.63
2019-01-19T15:55:53.082Z,7.60
2019-01-19T15:59:08.443Z,6.37
2019-01-19T16:02:11.307Z,6.53
2019-01-19T16:05:44.755Z,6.67
2019-01-19T16:08:47.557Z,5.60
2019-01-19T16:12:03.534Z,7.70
2019-01-19T16:15:04.268Z,5.70
2019-01-19T16:18:11.394Z,6.37
2019-01-19T16:21:23.402Z,7.23
2019-01-19T16:24:18.827Z,7.33
2019-01-19T16:27:05.897Z,6.23
2019-01-19T16:30:13.674Z,5.90
2019-01-19T16:33:11.619Z,5.50
2019-01-19T16:36:14.175Z,6.33
2019-01-19T16:39:00.496Z,7.00
2019-01-19T16:42:10.955Z,6.67
2019-01-19T16:45:18.187Z,6.27
2019-01-19T16:48:23.284Z,6.50
2019-01-19T16:51:41.555Z,6.47
2019-01-19T16:54:19.628Z,7.20
2019-01-19T16:57:30.803Z,5.43
2019-01-19T17:00:49.557Z,6.07
2019-01-19T17:04:17.076Z,6.83
2019-01-19T17:07:32.735Z,6.13
2019-01-19T17:10:30.415Z,7.27
2019-01-19T17:13:46.275Z,6.30
2019-01-19T17:16:59.636Z,7.00
2019-01-19T17:20:07.916Z,6.13
2019-01-19T17:23:19.836Z,6.50
2019-01-19T17:26:37.014Z,6.20
2019-01-19T17:29:29.875Z,6.27
2019-01-19T17:32:30.574Z,7.23
2019-01-19T17:35:34.016Z,6.77
2019-01-19T17:38:30.975Z,8.00
2019-01-19T17:41:45.896Z,8.37
2019-01-19T17:45:02.315Z,12.57
2019-01-19T17:48:30.515Z,15.43
2019-01-19T17:51:25.427Z,9.70
2019-01-19T17:54:30.914Z,9.37
2019-01-19T17:57:48.101Z,11.30
2019-01-19T18:00:47.935Z,8.30
2019-01-19T18:03:49.554Z,10.17
2019-01-19T18:06:41.797Z,13.93
2019-01-19T18:09:47.361Z,11.73
2019-01-19T18:12:50.747Z,9.90
2019-01-19T18:16:00.510Z,10.47
2019-01-19T18:19:19.003Z,8.77
2019-01-19T18:22:35.027Z,8.93
2019-01-19T18:25:39.435Z,8.97
2019-01-19T18:28:56.778Z,9.40
2019-01-19T18:31:48.775Z,8.33
2019-01-19T18:34:48.477Z,7.20
2019-01-19T18:37:47.475Z,9.93
2019-01-19T18:41:08.955Z,9.77
2019-01-19T18:44:14.125Z,9.10
2019-01-19T18:47:08.776Z,9.63
2019-01-19T18:50:17.855Z,9.93
2019-01-19T18:53:06.019Z,9.07
2019-01-19T18:56:16.895Z,8.03
2019-01-19T18:59:00.235Z,11.23
2019-01-19T19:01:56.294Z,8.33
2019-01-19T19:05:28.774Z,6.30
2019-01-19T19:08:29.470Z,7.50
2019-01-19T19:11:35.617Z,7.30
2019-01-19T19:14:44.095Z,6.67
2019-01-19T19:17:33.094Z,7.60
2019-01-19T19:20:22.374Z,8.60
2019-01-19T19:23:22.680Z,7.47
2019-01-19T19:26:29.886Z,7.10
2019-01-19T19:29:40.094Z,7.73
2019-01-19T19:33:01.058Z,7.50
2019-01-19T19:36:14.954Z,8.37
2019-01-19T19:39:17.535Z,8.97
2019-01-19T19:42:45.652Z,8.47
2019-01-19T19:45:52.397Z,7.43
2019-01-19T19:49:00.094Z,8.27
2019-01-19T19:52:06.934Z,8.67
2019-01-19T19:54:39.794Z,7.83
2019-01-19T19:57:12.415Z,8.37
2019-01-19T19:59:44.457Z,7.97
2019-01-19T20:02:16.679Z,6.80
2019-01-19T20:04:48.720Z,6.90
2019-01-19T20:07:21.195Z,6.03
2019-01-19T20:09:53.435Z,7.13
2019-01-19T20:12:26.055Z,5.90
2019-01-19T20:14:58.104Z,6.80
2019-01-19T20:17:30.196Z,6.77
2019-01-19T20:20:02.403Z,7.27
2019-01-19T20:22:34.234Z,7.47
2019-01-19T20:25:07.434Z,7.27
2019-01-19T20:27:39.754Z,7.17
2019-01-19T20:30:13.674Z,7.53
2019-01-19T20:32:45.535Z,7.20
2019-01-19T20:35:18.017Z,8.03
2019-01-19T20:37:50.186Z,7.87
2019-01-19T20:40:24.496Z,7.57
2019-01-19T20:42:56.176Z,7.33
2019-01-19T20:45:28.635Z,8.07
2019-01-19T20:48:00.617Z,8.97
2019-01-19T20:50:35.628Z,8.37
2019-01-19T20:53:09.031Z,8.90
2019-01-19T20:55:43.806Z,7.90
2019-01-19T20:58:15.975Z,9.53
2019-01-19T21:00:48.575Z,8.43
2019-01-19T21:03:20.895Z,7.37
2019-01-19T21:05:53.332Z,8.70
2019-01-19T21:08:25.217Z,7.70
2019-01-19T21:10:57.374Z,7.97
2019-01-19T21:13:29.324Z,9.30
2019-01-19T21:16:01.421Z,8.87
2019-01-19T21:18:33.865Z,8.87
2019-01-19T21:21:06.816Z,8.30
2019-01-19T21:23:39.035Z,8.30
2019-01-19T21:26:10.997Z,9.40
2019-01-19T21:28:42.776Z,8.90
2019-01-19T21:31:14.914Z,8.10
2019-01-19T21:33:47.074Z,8.13
2019-01-19T21:36:20.095Z,8.63
2019-01-19T21:38:52.116Z,8.30
2019-01-19T21:41:24.899Z,8.17
2019-01-19T21:43:58.221Z,8.07
2019-01-19T21:46:30.526Z,7.00
2019-01-19T21:49:02.477Z,7.70
2019-01-19T21:51:34.353Z,8.53
2019-01-19T21:54:06.975Z,7.80
2019-01-19T21:56:39.534Z,8.47
2019-01-19T21:59:12.397Z,8.67
2019-01-19T22:01:44.236Z,8.57
2019-01-19T22:04:16.177Z,9.07
2019-01-19T22:06:48.805Z,8.10
2019-01-19T22:09:22.329Z,6.93
2019-01-19T22:11:54.254Z,6.10
2019-01-19T22:14:26.156Z,8.07
2019-01-19T22:17:01.928Z,8.00
2019-01-19T22:19:34.394Z,7.20
2019-01-19T22:22:07.379Z,8.03
2019-01-19T22:24:39.414Z,7.30
2019-01-19T22:27:12.294Z,6.53
2019-01-19T22:29:44.554Z,7.17
2019-01-19T22:32:16.615Z,7.70
2019-01-19T22:34:48.775Z,6.33
2019-01-19T22:37:20.574Z,7.17
2019-01-19T22:39:52.270Z,7.33
2019-01-19T22:42:24.215Z,7.57
2019-01-19T22:44:56.555Z,6.57
2019-01-19T22:47:28.715Z,8.50
2019-01-19T22:50:01.234Z,7.90
2019-01-19T22:52:33.175Z,6.43
2019-01-19T22:55:06.482Z,8.03
2019-01-19T22:57:39.249Z,6.97
2019-01-19T23:00:30.351Z,6.90
2019-01-19T23:03:02.994Z,5.63
2019-01-19T23:05:35.255Z,6.57
2019-01-19T23:08:07.616Z,6.83
2019-01-19T23:10:39.598Z,7.70
2019-01-19T23:13:11.775Z,6.93
2019-01-19T23:15:44.061Z,6.90
2019-01-19T23:18:16.254Z,6.87
2019-01-19T23:20:48.335Z,7.60
2019-01-19T23:23:20.275Z,6.47
2019-01-19T23:25:52.974Z,5.90
2019-01-19T23:28:25.249Z,6.67
2019-01-19T23:30:57.129Z,6.27
2019-01-19T23:33:29.274Z,6.17
2019-01-19T23:36:02.591Z,6.30
2019-01-19T23:38:35.175Z,8.20
2019-01-19T23:41:09.199Z,7.07
2019-01-19T23:43:40.855Z,6.60
2019-01-19T23:46:12.714Z,6.93
2019-01-19T23:48:44.440Z,6.13
2019-01-19T23:51:16.414Z,6.50
2019-01-19T23:53:48.654Z,6.70
2019-01-19T23:56:21.495Z,6.97
2019-01-19T23:58:53.996Z,8.17
